Time;durP1;ratioP1;P1;durP2;ratioP2;P2;SDS_P1;SDS_P2;PMS_P1;PMS_P2;Temp;Humidity;BMP_temperature;BMP_pressure;BME280_temperature;BME280_humidity;BME280_pressure;Samples;Min_cycle;Max_cycle;Signal;HPM_P1;HPM_P2
2022/02/03 00:05:44;;;;;;;27.77;10.93;;;;;;;-7.55;100.00;98958.91;5014738;28;20438;-60
2022/02/03 00:08:26;;;;;;;30.08;10.23;;;;;;;-7.37;100.00;99004.63;5030124;28;20041;-60
2022/02/03 00:22:16;;;;;;;28.50;10.73;;;;;;;-7.69;100.00;98987.41;5031412;28;20517;-59
2022/02/03 00:25:11;;;;;;;27.30;11.18;;;;;;;-7.88;100.00;98965.34;5030625;28;20187;-59
2022/02/03 00:28:05;;;;;;;32.65;12.15;;;;;;;-7.75;100.00;98987.63;5030594;28;20073;-61
2022/02/03 00:30:35;;;;;;;29.00;11.55;;;;;;;-7.77;100.00;98999.94;5016423;28;20061;-60
2022/02/03 00:36:18;;;;;;;31.55;13.43;;;;;;;-7.82;100.00;99010.59;5019805;28;20088;-61
2022/02/03 00:49:44;;;;;;;29.00;10.70;;;;;;;-7.87;100.00;99006.41;5032330;28;20297;-58
2022/02/03 00:52:10;;;;;;;27.20;11.98;;;;;;;-7.88;100.00;99009.94;5033129;28;20053;-60
2022/02/03 00:54:35;;;;;;;27.80;11.65;;;;;;;-7.93;100.00;99003.97;5048236;28;20034;-58
2022/02/03 00:57:06;;;;;;;30.08;12.48;;;;;;;-7.90;100.00;99014.38;5015526;28;20152;-61
2022/02/03 00:59:40;;;;;;;31.83;13.32;;;;;;;-7.86;100.00;99013.34;5031740;28;20494;-61
2022/02/03 01:02:08;;;;;;;30.55;11.68;;;;;;;-7.85;100.00;99009.84;5032084;28;20064;-60
2022/02/03 01:04:38;;;;;;;31.52;11.65;;;;;;;-7.89;100.00;99005.63;4999093;28;20505;-60
2022/02/03 01:07:08;;;;;;;28.92;11.65;;;;;;;-7.90;100.00;99006.50;5033448;28;20497;-66
2022/02/03 01:09:38;;;;;;;33.80;12.15;;;;;;;-7.81;100.00;99014.06;5031784;28;20084;-63
2022/02/03 01:12:14;;;;;;;33.20;14.18;;;;;;;-7.77;100.00;99010.44;5032623;28;20477;-60
2022/02/03 01:44:16;;;;;;;26.35;11.00;;;;;;;-7.70;97.78;99011.94;5006673;28;20060;-60
2022/02/03 01:46:52;;;;;;;29.05;12.48;;;;;;;-7.63;98.01;99026.56;5029087;28;20053;-60
2022/02/03 01:49:39;;;;;;;33.25;13.00;;;;;;;-7.61;97.85;99036.97;5028754;28;20045;-62
2022/02/03 01:52:10;;;;;;;31.45;12.25;;;;;;;-7.67;97.38;99026.72;5014463;28;20045;-58
2022/02/03 01:54:37;;;;;;;32.80;13.20;;;;;;;-7.69;98.00;99034.63;5028906;28;20041;-61
2022/02/03 01:57:07;;;;;;;30.20;12.85;;;;;;;-7.71;97.45;99023.34;5030891;28;20049;-60
2022/02/03 01:59:35;;;;;;;29.48;12.02;;;;;;;-7.63;97.74;99049.31;5013567;28;20131;-58
2022/02/03 02:02:04;;;;;;;33.17;13.98;;;;;;;-7.81;97.65;99016.69;5030978;28;20037;-61
2022/02/03 02:05:08;;;;;;;30.88;13.88;;;;;;;-7.58;97.37;99042.97;4995880;28;20416;-61
2022/02/03 02:07:38;;;;;;;34.35;12.57;;;;;;;-7.54;97.58;99044.56;5018121;28;20061;-59
2022/02/03 02:18:57;;;;;;;29.75;12.38;;;;;;;-7.73;96.69;98996.28;5029612;28;20091;-60
2022/02/03 02:38:11;;;;;;;30.17;11.85;;;;;;;-7.68;95.98;99041.56;5033530;28;20042;-62
2022/02/03 02:43:50;;;;;;;37.17;13.52;;;;;;;-7.76;95.90;99048.84;5030924;28;20057;-60
2022/02/03 02:46:49;;;;;;;31.80;12.45;;;;;;;-7.82;96.47;99049.94;5015856;28;20053;-57
2022/02/03 02:49:48;;;;;;;40.58;14.60;;;;;;;-7.85;96.85;99057.06;5033205;28;20065;-60
2022/02/03 02:52:22;;;;;;;32.80;13.68;;;;;;;-7.89;96.80;99063.31;5033481;28;20065;-57
2022/02/03 03:31:21;;;;;;;30.00;11.48;;;;;;;-8.19;97.34;99042.44;5033102;28;20071;-59
2022/02/03 03:33:58;;;;;;;31.33;11.98;;;;;;;-7.98;97.18;99068.84;5049334;28;20128;-59
2022/02/03 03:36:27;;;;;;;30.85;12.38;;;;;;;-7.98;97.46;99079.34;5035042;28;20053;-60
2022/02/03 03:38:53;;;;;;;30.65;13.73;;;;;;;-8.02;96.58;99074.19;5031633;28;20046;-60
2022/02/03 03:41:21;;;;;;;28.65;12.38;;;;;;;-8.01;96.57;99075.94;5031915;28;20043;-60
2022/02/03 03:44:14;;;;;;;36.05;14.10;;;;;;;-8.03;96.78;99075.09;5030776;28;20037;-59
2022/02/03 03:46:41;;;;;;;32.08;12.50;;;;;;;-8.22;96.84;99037.28;5030808;28;20053;-58
2022/02/03 03:49:15;;;;;;;33.33;12.27;;;;;;;-8.04;97.13;99072.56;5030354;28;20052;-60
2022/02/03 03:51:48;;;;;;;31.70;13.82;;;;;;;-8.05;96.92;99070.81;5013644;28;20053;-59
2022/02/03 03:54:28;;;;;;;29.92;12.18;;;;;;;-8.05;96.88;99071.66;5030160;28;20052;-60
2022/02/03 03:57:08;;;;;;;32.65;12.90;;;;;;;-8.05;96.79;99069.03;5030257;28;20057;-57
2022/02/03 04:00:09;;;;;;;36.38;13.38;;;;;;;-8.10;97.36;99073.59;5013298;28;20045;-60
2022/02/03 04:40:05;;;;;;;33.35;13.57;;;;;;;-8.17;97.60;99094.81;5029139;28;20557;-58
2022/02/03 04:50:48;;;;;;;33.97;13.63;;;;;;;-8.28;97.53;99097.78;5029361;28;20052;-57
2022/02/03 05:05:25;;;;;;;36.35;13.93;;;;;;;-8.71;98.85;99062.44;5000515;28;20136;-61
2022/02/03 05:08:34;;;;;;;34.22;13.27;;;;;;;-8.46;99.01;99114.94;5025600;28;20067;-64
2022/02/03 05:26:01;;;;;;;37.05;14.35;;;;;;;-8.61;98.86;99100.53;5042481;28;20072;-60
2022/02/03 05:46:05;;;;;;;41.58;14.65;;;;;;;-8.81;97.17;99115.97;5012021;28;20049;-58
2022/02/03 06:02:34;;;;;;;44.60;16.60;;;;;;;-8.51;93.94;99138.69;5015779;28;20149;-59
2022/02/03 06:05:03;;;;;;;41.88;14.80;;;;;;;-8.39;93.69;99152.31;5016196;28;20046;-63
2022/02/03 06:07:48;;;;;;;42.50;15.27;;;;;;;-8.30;92.57;99152.00;5013598;28;20386;-62
2022/02/03 06:15:32;;;;;;;40.13;15.10;;;;;;;-8.13;91.80;99160.22;5028887;28;20099;-63
2022/02/03 06:21:30;;;;;;;46.00;16.98;;;;;;;-7.94;89.96;99175.38;5013420;28;20521;-62
2022/02/03 06:23:52;;;;;;;38.38;15.63;;;;;;;-7.65;90.59;99172.69;4994818;28;20482;-62
2022/02/03 06:29:08;;;;;;;44.47;15.82;;;;;;;-7.53;90.69;99146.06;4993616;28;20045;-61
2022/02/03 06:31:36;;;;;;;37.15;13.65;;;;;;;-7.33;89.74;99157.63;5012476;28;20054;-60
2022/02/03 06:34:02;;;;;;;33.28;14.25;;;;;;;-7.03;88.55;99151.31;5012729;28;20038;-62
2022/02/03 06:36:27;;;;;;;39.55;16.15;;;;;;;-6.89;87.27;99147.34;5005043;28;20052;-61
2022/02/03 06:38:53;;;;;;;47.25;15.85;;;;;;;-6.87;85.16;99150.78;4999119;28;20050;-60
2022/02/03 06:41:19;;;;;;;46.25;15.88;;;;;;;-6.88;84.47;99115.75;5030015;28;20045;-63
2022/02/03 06:43:46;;;;;;;50.17;15.48;;;;;;;-6.61;84.26;99152.47;5013365;28;20044;-67
2022/02/03 06:46:13;;;;;;;48.55;15.63;;;;;;;-6.51;83.39;99142.44;5028547;28;20041;-66
2022/02/03 06:48:42;;;;;;;40.55;15.55;;;;;;;-6.63;83.71;99097.31;5029514;28;20053;-60
2022/02/03 06:51:17;;;;;;;39.92;14.48;;;;;;;-6.23;82.75;99139.63;4998214;28;20088;-60
2022/02/03 06:53:46;;;;;;;39.25;14.57;;;;;;;-6.09;82.30;99143.44;5020285;28;20578;-59
2022/02/03 06:56:24;;;;;;;42.40;14.30;;;;;;;-5.91;81.04;99143.59;5013582;28;20049;-60
2022/02/03 06:58:55;;;;;;;41.97;15.25;;;;;;;-5.76;80.97;99148.25;5028710;28;20099;-56
2022/02/03 07:01:40;;;;;;;39.60;14.93;;;;;;;-5.63;80.57;99136.31;5011335;28;20049;-56
2022/02/03 07:04:15;;;;;;;41.13;15.43;;;;;;;-5.44;79.78;99151.34;5012220;28;20092;-60
2022/02/03 07:06:41;;;;;;;49.05;15.18;;;;;;;-5.32;78.63;99147.34;5015263;28;20054;-61
2022/02/03 07:09:09;;;;;;;39.40;14.57;;;;;;;-5.31;77.92;99139.34;5010827;28;20076;-59
2022/02/03 07:11:37;;;;;;;34.63;14.63;;;;;;;-5.22;78.12;99143.41;4997175;28;20053;-60
2022/02/03 07:14:04;;;;;;;40.03;16.58;;;;;;;-5.10;78.21;99154.25;5042975;28;20042;-62
2022/02/03 07:16:34;;;;;;;41.80;16.73;;;;;;;-5.10;78.03;99153.41;5030910;28;20050;-60
2022/02/03 07:18:59;;;;;;;49.65;18.05;;;;;;;-5.01;77.42;99146.88;4997087;28;20151;-58
2022/02/03 07:21:25;;;;;;;45.53;17.83;;;;;;;-4.54;76.51;99151.84;5029054;28;20243;-60
2022/02/03 07:23:51;;;;;;;38.15;14.63;;;;;;;-4.83;76.36;99151.34;5029265;28;20139;-60
2022/02/03 07:26:17;;;;;;;47.63;16.80;;;;;;;-4.49;75.17;99170.97;5029109;28;20049;-60
2022/02/03 07:28:42;;;;;;;42.03;15.82;;;;;;;-4.49;74.64;99170.97;5031658;28;20052;-59
2022/02/03 07:31:08;;;;;;;38.53;15.43;;;;;;;-4.34;74.62;99143.88;5039076;28;20152;-61
2022/02/03 07:33:34;;;;;;;39.00;15.77;;;;;;;-4.02;73.78;99170.53;5009788;28;20375;-59
2022/02/03 07:36:00;;;;;;;34.38;14.23;;;;;;;-4.19;73.75;99179.25;4994968;28;20627;-60
2022/02/03 07:38:26;;;;;;;45.30;18.00;;;;;;;-4.27;73.99;99182.25;5028280;28;20108;-58
2022/02/03 07:40:52;;;;;;;47.13;17.95;;;;;;;-4.72;76.09;99183.38;5012301;28;20460;-59
2022/02/03 07:43:18;;;;;;;42.05;18.55;;;;;;;-5.01;78.38;99189.03;4998822;28;20142;-57
2022/02/03 07:45:44;;;;;;;46.67;18.23;;;;;;;-5.03;78.45;99183.84;4999030;28;20041;-59
2022/02/03 07:48:10;;;;;;;47.08;19.25;;;;;;;-5.28;78.76;99152.41;5040973;28;20041;-59
2022/02/03 07:50:36;;;;;;;45.55;17.77;;;;;;;-4.96;78.65;99180.03;5015634;28;20053;-57
2022/02/03 07:53:01;;;;;;;39.22;17.38;;;;;;;-4.82;78.37;99184.72;5025168;28;20531;-60
2022/02/03 07:55:27;;;;;;;47.47;19.17;;;;;;;-4.84;77.69;99183.91;5014114;28;20045;-56
2022/02/03 07:57:54;;;;;;;49.30;19.63;;;;;;;-4.73;78.03;99194.00;5026301;28;20469;-60
2022/02/03 08:00:22;;;;;;;49.42;23.60;;;;;;;-5.00;78.86;99190.78;5025483;28;20068;-61
2022/02/03 08:02:47;;;;;;;46.33;18.95;;;;;;;-5.16;79.18;99178.22;5027421;28;20038;-57
2022/02/03 08:05:16;;;;;;;41.88;18.85;;;;;;;-4.78;78.33;99196.84;5017626;28;20048;-60
2022/02/03 08:08:07;;;;;;;42.10;17.55;;;;;;;-4.78;78.55;99186.28;5012564;28;20049;-59
2022/02/03 08:10:47;;;;;;;40.60;16.00;;;;;;;-4.74;79.13;99189.66;5026321;28;20152;-59
2022/02/03 08:13:18;;;;;;;45.35;17.27;;;;;;;-4.45;78.21;99191.84;5016707;28;20539;-59
2022/02/03 08:15:44;;;;;;;46.08;17.30;;;;;;;-4.16;77.19;99193.16;5026323;28;20118;-60
2022/02/03 08:18:16;;;;;;;44.10;18.33;;;;;;;-4.04;76.68;99185.59;5040263;28;20045;-59
2022/02/03 08:20:50;;;;;;;37.08;15.82;;;;;;;-3.75;75.63;99195.66;5025564;28;20136;-62
2022/02/03 08:26:06;;;;;;;46.38;18.58;;;;;;;-3.40;74.36;99190.44;5029119;28;20145;-60
2022/02/03 08:31:27;;;;;;;47.33;19.73;;;;;;;-3.21;72.55;99199.19;5029895;28;20143;-61
2022/02/03 08:33:55;;;;;;;46.90;19.98;;;;;;;-3.63;73.58;99184.47;4995746;28;20512;-62
2022/02/03 08:36:22;;;;;;;46.67;20.13;;;;;;;-3.59;73.68;99194.91;5016581;28;20069;-67
2022/02/03 08:38:53;;;;;;;46.75;21.23;;;;;;;-3.83;73.89;99186.38;5022007;28;20045;-61
2022/02/03 08:41:21;;;;;;;47.92;21.65;;;;;;;-4.19;74.98;99185.38;5013290;28;20045;-61
2022/02/03 08:43:47;;;;;;;54.75;21.83;;;;;;;-4.48;76.95;99210.44;5014427;28;20378;-59
2022/02/03 08:46:15;;;;;;;53.63;22.33;;;;;;;-4.58;77.16;99193.31;4995345;28;20137;-62
2022/02/03 08:48:41;;;;;;;47.78;21.92;;;;;;;-4.97;78.68;99195.88;5011685;28;20416;-61
2022/02/03 08:51:08;;;;;;;57.05;24.40;;;;;;;-5.36;80.31;99210.69;4995644;28;20048;-60
2022/02/03 08:53:39;;;;;;;46.33;20.33;;;;;;;-5.26;80.40;99203.28;5027687;28;20050;-61
2022/02/03 09:39:54;;;;;;;48.80;18.88;;;;;;;-5.01;82.26;99205.75;5026681;28;20041;-67
2022/02/03 09:58:11;;;;;;;49.80;21.80;;;;;;;-5.15;81.50;99197.56;5014516;28;20194;-62
2022/02/03 10:00:44;;;;;;;50.55;20.58;;;;;;;-5.15;82.21;99187.88;4998767;28;20058;-64
2022/02/03 10:03:16;;;;;;;51.13;21.48;;;;;;;-5.12;82.21;99187.75;4997180;28;20049;-63
2022/02/03 10:05:59;;;;;;;48.85;21.52;;;;;;;-5.02;81.89;99187.34;5047948;28;20050;-64
2022/02/03 10:08:26;;;;;;;56.80;21.95;;;;;;;-4.96;80.87;99190.56;5019095;28;20056;-63
2022/02/03 10:11:18;;;;;;;46.35;18.17;;;;;;;-4.84;80.83;99189.19;5013244;28;20056;-63
2022/02/03 10:13:52;;;;;;;42.10;19.52;;;;;;;-5.11;81.76;99192.09;5011937;28;20454;-63
2022/02/03 10:16:21;;;;;;;52.58;20.10;;;;;;;-4.73;81.44;99194.84;5014952;28;20076;-62
2022/02/03 10:18:49;;;;;;;49.85;22.88;;;;;;;-4.84;81.02;99186.53;5013906;28;20045;-63
2022/02/03 10:21:17;;;;;;;43.45;18.38;;;;;;;-4.54;80.04;99178.19;4997700;28;20072;-63
2022/02/03 10:23:58;;;;;;;49.42;18.73;;;;;;;-4.79;81.10;99168.75;5017479;28;20072;-63
2022/02/03 10:26:52;;;;;;;50.35;23.17;;;;;;;-4.93;81.75;99190.44;5028720;28;20254;-63
2022/02/03 10:29:23;;;;;;;44.70;20.13;;;;;;;-4.82;82.19;99203.16;4991808;28;20065;-63
2022/02/03 10:31:50;;;;;;;50.90;22.50;;;;;;;-4.89;81.07;99193.81;5017215;28;20095;-62
2022/02/03 10:34:23;;;;;;;48.97;23.45;;;;;;;-4.93;81.64;99195.72;5012924;28;20051;-64
2022/02/03 10:43:12;;;;;;;52.63;22.08;;;;;;;-4.65;81.10;99198.00;5011074;28;20109;-63
2022/02/03 10:45:20;;;;;;;46.08;18.90;;;;;;;-4.28;79.00;99185.78;5002447;28;20054;-63
2022/02/03 10:48:27;;;;;;;45.60;18.95;;;;;;;-3.81;77.18;99190.66;5028171;28;20053;-64
2022/02/03 10:51:13;;;;;;;49.35;22.08;;;;;;;-3.92;76.66;99192.94;5012063;28;20421;-63
2022/02/03 10:56:39;;;;;;;47.13;20.30;;;;;;;-3.90;77.06;99191.09;4998088;28;20212;-62
2022/02/03 11:02:22;;;;;;;47.10;21.02;;;;;;;-3.22;74.27;99204.53;5011874;28;20531;-63
2022/02/03 11:08:09;;;;;;;45.35;19.80;;;;;;;-2.60;72.10;99186.41;4995511;28;20188;-63
2022/02/03 11:10:38;;;;;;;40.28;18.08;;;;;;;-2.47;70.96;99192.78;5031236;28;20053;-63
2022/02/03 11:13:05;;;;;;;48.03;19.65;;;;;;;-1.94;70.12;99189.00;5014022;28;20061;-63
2022/02/03 11:15:33;;;;;;;46.20;17.90;;;;;;;-1.54;67.98;99195.59;5027476;28;20045;-63
2022/02/03 11:18:06;;;;;;;47.88;20.48;;;;;;;-2.60;70.14;99203.13;5036329;28;20450;-63
2022/02/03 11:20:35;;;;;;;45.00;19.85;;;;;;;-2.76;72.43;99197.78;5027810;28;20507;-63
2022/02/03 11:47:51;;;;;;;42.25;17.42;;;;;;;-3.34;76.66;99195.44;5013249;28;20045;-63
2022/02/03 12:05:01;;;;;;;43.75;18.75;;;;;;;-3.96;79.91;99196.66;5037261;28;20136;-62
2022/02/03 12:16:08;;;;;;;39.40;16.60;;;;;;;-3.48;79.28;99196.09;5015788;28;20385;-64
2022/02/03 12:19:03;;;;;;;47.33;18.48;;;;;;;-3.68;79.57;99196.22;5015891;28;20070;-63
2022/02/03 12:22:00;;;;;;;53.20;20.08;;;;;;;-3.68;80.14;99197.06;4997877;28;20033;-63
2022/02/03 12:24:50;;;;;;;45.15;19.33;;;;;;;-3.70;80.51;99177.78;5027274;28;20058;-63
2022/02/03 12:27:34;;;;;;;47.28;21.23;;;;;;;-3.68;79.75;99191.78;5018305;28;20494;-64
2022/02/03 12:30:14;;;;;;;47.17;17.35;;;;;;;-3.43;78.82;99198.53;5013304;28;20080;-62
2022/02/03 12:36:56;;;;;;;45.33;17.98;;;;;;;-3.41;79.09;99194.00;4997203;28;20060;-63
2022/02/03 12:38:36;;;;;;;52.90;23.55;;;;;;;-3.72;80.48;99194.66;5023891;28;20045;-63
2022/02/03 12:41:11;;;;;;;54.72;22.50;;;;;;;-3.97;81.35;99189.69;4997539;28;20080;-69
2022/02/03 12:43:40;;;;;;;42.75;21.13;;;;;;;-4.38;82.52;99160.78;5014597;28;20472;-67
2022/02/03 12:46:07;;;;;;;49.20;20.73;;;;;;;-4.35;83.22;99192.31;5010856;28;20077;-63
2022/02/03 12:48:35;;;;;;;40.80;17.55;;;;;;;-4.28;83.33;99198.97;5012787;28;20527;-63
2022/02/03 12:51:02;;;;;;;48.08;20.15;;;;;;;-4.51;84.57;99199.16;5010897;28;20061;-63
2022/02/03 12:53:31;;;;;;;43.42;22.10;;;;;;;-4.64;84.71;99220.81;5028870;28;20053;-63
2022/02/03 12:55:57;;;;;;;42.28;16.67;;;;;;;-4.58;84.67;99208.28;5045052;28;20370;-63
2022/02/03 12:58:25;;;;;;;44.70;20.17;;;;;;;-4.70;85.52;99215.81;5012734;28;20045;-64
2022/02/03 13:01:08;;;;;;;39.97;17.52;;;;;;;-4.74;85.63;99214.22;5011737;28;20080;-64
2022/02/03 13:03:38;;;;;;;41.90;15.57;;;;;;;-4.74;86.29;99218.66;5016846;28;20049;-63
2022/02/03 13:06:09;;;;;;;46.13;19.90;;;;;;;-4.88;86.72;99206.06;5021968;28;20488;-64
2022/02/03 13:08:47;;;;;;;46.83;17.65;;;;;;;-4.86;87.06;99209.50;5013735;28;20414;-66
2022/02/03 13:11:21;;;;;;;;;;;;;;;-4.72;87.00;99216.78;5026039;28;20132;-63
2022/02/03 13:16:35;;;;;;;39.75;14.85;;;;;;;-4.73;86.73;99197.47;5041610;28;20070;-63
2022/02/03 13:19:17;;;;;;;36.42;14.50;;;;;;;-4.68;85.93;99210.44;5011544;28;20160;-63
2022/02/03 13:24:37;;;;;;;39.20;16.30;;;;;;;-4.87;87.54;99205.13;5011904;28;20045;-62
2022/02/03 13:27:16;;;;;;;40.33;17.15;;;;;;;-4.89;87.67;99210.47;5009011;28;20038;-61
2022/02/03 13:30:08;;;;;;;39.35;15.77;;;;;;;-4.93;87.76;99200.13;5022170;28;20099;-63
2022/02/03 13:32:41;;;;;;;45.30;16.35;;;;;;;-4.95;87.78;99208.09;4997912;28;20493;-63
2022/02/03 13:35:21;;;;;;;40.60;15.38;;;;;;;-4.97;87.42;99212.59;5037247;28;20052;-60
2022/02/03 13:37:52;;;;;;;37.55;14.25;;;;;;;-5.02;87.84;99206.63;4994603;28;20045;-61
2022/02/03 13:40:19;;;;;;;;;;;;;;;-5.03;88.08;99214.63;5011991;28;20077;-62
2022/02/03 13:42:49;;;;;;;33.38;13.02;;;;;;;-5.03;87.71;99217.25;5011301;28;20130;-63
2022/02/03 13:45:18;;;;;;;48.03;19.35;;;;;;;-5.11;88.30;99210.53;5011555;28;20049;-61
2022/02/03 13:47:46;;;;;;;38.22;15.23;;;;;;;-5.12;88.07;99214.09;5010940;28;20049;-61
2022/02/03 13:50:23;;;;;;;39.40;13.85;;;;;;;-5.10;88.19;99214.00;4995231;28;20465;-61
2022/02/03 14:15:20;;;;;;;35.53;14.65;;;;;;;-5.12;89.74;99211.47;4990366;28;20084;-63
2022/02/03 14:20:40;;;;;;;38.92;14.82;;;;;;;-5.11;88.53;99205.25;5027166;28;20507;-64
2022/02/03 14:28:21;;;;;;;39.22;14.82;;;;;;;-5.06;88.56;99220.00;5032496;28;20049;-62
2022/02/03 14:30:52;;;;;;;41.05;13.85;;;;;;;-5.13;89.00;99207.09;5012386;28;20042;-63
2022/02/03 14:33:26;;;;;;;43.78;15.10;;;;;;;-5.08;89.10;99214.81;5000571;28;20045;-62
2022/02/03 14:35:52;;;;;;;41.88;14.98;;;;;;;-5.10;88.67;99220.13;5011822;28;20053;-65
2022/02/03 14:38:25;;;;;;;42.17;14.95;;;;;;;-5.12;89.39;99219.38;5003529;28;20048;-61
2022/02/03 14:43:17;;;;;;;48.58;16.13;;;;;;;-5.19;89.84;99210.00;5014048;28;20042;-62
2022/02/03 14:45:42;;;;;;;44.08;17.02;;;;;;;-5.09;89.78;99229.75;5010270;28;20057;-62
2022/02/03 14:48:11;;;;;;;47.05;18.38;;;;;;;-5.21;89.97;99209.19;5013193;28;20053;-61
2022/02/03 14:50:37;;;;;;;44.40;15.98;;;;;;;-5.05;90.02;99229.63;5030639;28;20041;-61
2022/02/03 14:53:13;;;;;;;44.00;14.43;;;;;;;-5.06;89.85;99233.19;5017097;28;20046;-62
2022/02/03 14:58:26;;;;;;;44.78;16.80;;;;;;;-5.11;90.24;99236.88;5016887;28;20053;-63
2022/02/03 15:00:52;;;;;;;43.83;16.02;;;;;;;-5.14;89.99;99237.00;5012739;28;20041;-63
2022/02/03 15:03:20;;;;;;;38.45;13.52;;;;;;;-5.13;89.95;99233.44;4982409;28;20102;-63
2022/02/03 15:05:46;;;;;;;54.03;17.05;;;;;;;-5.33;90.57;99204.44;4996977;28;20049;-63
2022/02/03 15:08:19;;;;;;;48.33;17.08;;;;;;;-5.17;90.67;99226.56;5011060;28;20077;-62
2022/02/03 15:10:51;;;;;;;49.45;16.80;;;;;;;-5.13;90.35;99233.44;5029311;28;20046;-62
2022/02/03 15:13:36;;;;;;;42.10;14.55;;;;;;;-5.30;90.31;99206.94;5030971;28;20050;-62
2022/02/03 15:16:04;;;;;;;42.05;15.63;;;;;;;-5.31;90.79;99212.25;5011689;28;20141;-62
2022/02/03 15:18:30;;;;;;;50.20;16.50;;;;;;;-5.26;91.17;99229.63;5016182;28;20049;-60
2022/02/03 15:20:56;;;;;;;43.78;13.90;;;;;;;-5.32;90.88;99226.38;4999931;28;20429;-61
2022/02/03 15:23:23;;;;;;;43.90;15.98;;;;;;;-5.29;91.38;99226.25;5023955;28;20049;-62
2022/02/03 15:25:49;;;;;;;45.60;16.52;;;;;;;-5.31;90.96;99228.91;5018392;28;20454;-62
2022/02/03 15:28:15;;;;;;;43.78;16.08;;;;;;;-5.34;90.95;99235.19;4996186;28;20139;-61
2022/02/03 15:30:41;;;;;;;50.20;18.00;;;;;;;-5.36;91.35;99241.44;5011800;28;20038;-62
2022/02/03 15:33:07;;;;;;;57.75;17.92;;;;;;;-5.38;92.00;99246.75;5011802;28;20053;-61
2022/02/03 15:35:41;;;;;;;51.17;18.60;;;;;;;-5.44;91.88;99233.00;5010361;28;20155;-63
2022/02/03 15:38:12;;;;;;;44.63;16.13;;;;;;;-5.47;91.75;99233.09;5013882;28;20107;-61
2022/02/03 15:40:38;;;;;;;54.95;18.80;;;;;;;-5.48;91.79;99231.41;5029004;28;20107;-62
2022/02/03 15:43:07;;;;;;;51.47;15.88;;;;;;;-5.54;92.04;99236.91;5037109;28;20465;-62
2022/02/03 15:45:43;;;;;;;55.28;18.30;;;;;;;-5.52;92.79;99235.06;5011586;28;20053;-62
2022/02/03 15:48:28;;;;;;;54.08;18.50;;;;;;;-5.53;92.49;99241.25;5028348;28;20061;-61
2022/02/03 16:18:01;;;;;;;57.70;21.70;;;;;;;-5.70;93.05;99249.81;5009039;28;20508;-61
2022/02/03 16:20:35;;;;;;;59.33;19.60;;;;;;;-5.66;93.34;99244.38;5028950;28;20041;-61
2022/02/03 16:23:17;;;;;;;59.78;21.90;;;;;;;-5.69;92.70;99238.38;4992362;28;20065;-63
2022/02/03 16:50:26;;;;;;;61.83;23.23;;;;;;;-5.87;93.34;99232.03;5010050;28;20091;-62
2022/02/03 16:52:54;;;;;;;60.25;20.73;;;;;;;-5.85;93.73;99245.97;5010343;28;20053;-63
2022/02/03 16:55:23;;;;;;;58.75;21.45;;;;;;;-5.90;93.52;99237.41;5012230;28;20078;-62
2022/02/03 16:57:51;;;;;;;52.45;20.45;;;;;;;-5.89;93.61;99242.59;4988427;28;20048;-62
2022/02/03 17:00:19;;;;;;;63.72;22.73;;;;;;;-5.91;93.81;99238.34;5026606;28;20140;-63
2022/02/03 17:02:45;;;;;;;65.07;22.30;;;;;;;-5.95;93.46;99231.53;5009892;28;20042;-63
2022/02/03 17:05:12;;;;;;;59.72;19.98;;;;;;;-5.92;93.35;99241.94;5027443;28;20136;-62
2022/02/03 17:07:38;;;;;;;50.00;19.38;;;;;;;-5.98;93.26;99234.25;5011394;28;20049;-63
2022/02/03 17:10:17;;;;;;;66.32;21.13;;;;;;;-5.96;93.30;99237.69;4995438;28;20555;-62
2022/02/03 17:12:43;;;;;;;60.60;21.23;;;;;;;-6.01;93.30;99237.00;5024214;28;20058;-61
2022/02/03 17:15:09;;;;;;;59.47;21.58;;;;;;;-5.98;93.20;99243.00;5026162;28;20109;-61
2022/02/03 17:17:35;;;;;;;54.28;17.30;;;;;;;-6.13;92.95;99215.50;4994344;28;20370;-63
2022/02/03 17:20:01;;;;;;;50.05;18.25;;;;;;;-5.97;92.81;99244.72;5011099;28;20055;-63
2022/02/03 17:22:32;;;;;;;49.55;19.33;;;;;;;-5.94;93.16;99238.50;4997018;28;20555;-65
2022/02/03 17:25:13;;;;;;;49.88;17.80;;;;;;;-5.96;92.46;99241.19;5018863;28;20252;-65
2022/02/03 17:27:46;;;;;;;45.78;15.95;;;;;;;-5.90;92.77;99240.06;5008247;28;20053;-68
2022/02/03 17:30:25;;;;;;;56.85;19.67;;;;;;;-5.92;92.19;99240.13;5007400;28;20041;-69
2022/02/03 18:02:57;;;;;;;53.05;17.27;;;;;;;-5.77;92.41;99228.16;5019168;28;20045;-65
2022/02/03 18:11:24;;;;;;;53.85;19.60;;;;;;;-6.02;93.22;99222.13;5028374;28;20041;-65
2022/02/03 18:51:43;;;;;;;62.40;23.13;;;;;;;-6.24;95.71;99219.47;5003201;28;20060;-64
2022/02/03 18:54:30;;;;;;;58.22;20.20;;;;;;;-6.25;96.56;99223.88;5017459;28;20052;-64
2022/02/03 18:57:18;;;;;;;51.58;19.85;;;;;;;-6.15;96.52;99230.47;5018338;28;20056;-64
2022/02/03 19:00:22;;;;;;;64.47;22.67;;;;;;;-6.19;95.86;99228.03;5001370;28;20046;-64
2022/02/03 20:05:16;;;;;;;50.08;18.45;;;;;;;-6.15;96.16;99225.22;5008511;28;20473;-64
2022/02/03 20:07:57;;;;;;;48.90;16.08;;;;;;;-6.20;95.94;99216.66;4998112;28;20041;-64
2022/02/03 20:10:32;;;;;;;49.47;16.27;;;;;;;-6.18;96.10;99230.63;4990924;28;20119;-64
2022/02/03 20:12:58;;;;;;;63.33;20.52;;;;;;;-6.19;96.83;99234.13;5011098;28;20136;-64
2022/02/03 20:15:25;;;;;;;61.85;22.30;;;;;;;-6.19;96.90;99223.63;5027223;28;20104;-65
2022/02/03 20:17:51;;;;;;;62.03;21.83;;;;;;;-6.15;96.36;99234.88;5024820;28;20106;-64
2022/02/03 20:20:20;;;;;;;62.75;22.98;;;;;;;-6.17;96.26;99232.31;4997739;28;20469;-64
2022/02/03 20:22:46;;;;;;;67.07;22.70;;;;;;;-6.18;96.28;99222.72;4999566;28;20038;-64
2022/02/03 20:25:12;;;;;;;60.03;23.05;;;;;;;-6.26;95.44;99201.09;4996261;28;20051;-64
2022/02/03 20:27:38;;;;;;;72.05;26.10;;;;;;;-6.04;95.78;99247.63;5012170;28;20464;-64
2022/02/03 20:30:07;;;;;;;70.57;25.13;;;;;;;-6.31;95.58;99203.03;4993261;28;20417;-64
2022/02/03 20:32:33;;;;;;;64.43;25.00;;;;;;;-6.03;95.54;99241.44;5013842;28;20489;-64
2022/02/03 20:35:00;;;;;;;60.13;23.13;;;;;;;-6.05;95.27;99240.66;5023748;28;20052;-64
2022/02/03 20:37:26;;;;;;;71.53;25.60;;;;;;;-6.25;95.39;99205.47;4995726;28;20103;-65
2022/02/03 20:39:52;;;;;;;55.58;21.17;;;;;;;-6.03;95.25;99230.94;5017271;28;20441;-64
2022/02/03 20:42:17;;;;;;;67.22;24.75;;;;;;;-6.02;95.39;99240.56;5024273;28;20052;-64
2022/02/03 20:44:48;;;;;;;63.20;24.27;;;;;;;-6.12;95.17;99225.09;4995356;28;20069;-64
2022/02/03 20:47:15;;;;;;;66.50;22.25;;;;;;;-6.11;95.04;99232.06;5009504;28;20071;-64
2022/02/03 20:49:41;;;;;;;65.05;22.05;;;;;;;-6.10;95.38;99239.06;5010097;28;20084;-64
2022/02/03 20:52:07;;;;;;;70.72;24.98;;;;;;;-6.12;95.39;99240.88;5026329;28;20394;-65
2022/02/03 20:54:33;;;;;;;66.35;22.92;;;;;;;-6.19;95.37;99239.41;5042985;28;20045;-65
2022/02/03 20:57:00;;;;;;;57.53;18.30;;;;;;;-6.21;95.14;99245.66;5028580;28;20501;-64
2022/02/03 20:59:30;;;;;;;44.47;17.38;;;;;;;-6.42;95.89;99226.25;5035749;28;20142;-63
2022/02/03 21:02:00;;;;;;;55.33;20.65;;;;;;;-6.31;96.01;99245.97;5009981;28;20460;-65
2022/02/03 21:04:36;;;;;;;46.95;17.23;;;;;;;-6.45;96.03;99227.22;5011774;28;20144;-64
2022/02/03 21:07:04;;;;;;;54.70;15.27;;;;;;;-6.42;96.45;99236.78;5031292;28;20045;-63
2022/02/03 21:09:31;;;;;;;46.15;16.85;;;;;;;-6.46;96.57;99245.69;5016693;28;20131;-65
2022/02/03 21:11:56;;;;;;;48.78;17.02;;;;;;;-6.51;96.53;99248.47;5006803;28;20044;-65
2022/02/03 21:14:23;;;;;;;45.45;14.65;;;;;;;-6.50;96.46;99244.09;5011166;28;20134;-63
2022/02/03 21:16:52;;;;;;;45.25;16.02;;;;;;;-6.46;96.93;99248.31;5012368;28;20072;-64
2022/02/03 21:19:18;;;;;;;52.35;17.40;;;;;;;-6.58;96.75;99242.59;5034458;28;20119;-65
2022/02/03 21:21:44;;;;;;;46.95;16.38;;;;;;;-6.48;96.31;99252.75;5013299;28;20037;-64
2022/02/03 21:24:09;;;;;;;48.17;15.80;;;;;;;-6.51;96.24;99244.97;5027930;28;20398;-64
2022/02/03 21:26:39;;;;;;;46.45;15.07;;;;;;;-6.47;96.58;99254.47;4997426;28;20481;-65
2022/02/03 21:29:05;;;;;;;44.42;16.63;;;;;;;-6.44;96.12;99246.47;4997447;28;20042;-64
2022/02/03 21:31:31;;;;;;;51.42;15.90;;;;;;;-6.41;96.31;99254.25;5029821;28;20123;-64
2022/02/03 21:33:58;;;;;;;48.13;16.60;;;;;;;-6.39;95.83;99262.97;4997341;28;20513;-64
2022/02/03 21:36:26;;;;;;;48.60;15.93;;;;;;;-6.44;95.79;99233.31;4997208;28;20045;-64
2022/02/03 21:38:52;;;;;;;48.88;15.63;;;;;;;-6.66;95.32;99199.06;5014123;28;20095;-64